createdAt,value
2019-06-07T00:01:09.567Z,96824.24
2019-06-07T00:04:08.546Z,96821.30
2019-06-07T00:07:03.094Z,96819.20
2019-06-07T00:09:59.703Z,96825.56
2019-06-07T00:12:56.530Z,96828.55
2019-06-07T00:15:53.273Z,96820.45
2019-06-07T00:18:49.287Z,96809.45
2019-06-07T00:24:41.440Z,96816.27
2019-06-07T00:27:39.074Z,96816.27
2019-06-07T00:30:48.184Z,96812.88
2019-06-07T00:33:32.073Z,96803.97
2019-06-07T00:36:27.631Z,96808.65
2019-06-07T00:39:25.858Z,96812.09
2019-06-07T00:42:23.314Z,96811.28
2019-06-07T00:45:18.967Z,96805.35
2019-06-07T00:48:19.558Z,96798.55
2019-06-07T00:51:08.847Z,96795.60
2019-06-07T00:54:05.452Z,96795.20
2019-06-07T00:57:00.680Z,96789.29
2019-06-07T00:59:57.604Z,96787.62
2019-06-07T01:02:53.266Z,96783.83
2019-06-07T01:05:49.597Z,96779.16
2019-06-07T01:08:46.146Z,96767.27
2019-06-07T01:11:43.700Z,96766.03
2019-06-07T01:14:40.348Z,96770.28
2019-06-07T01:18:32.557Z,96768.60
2019-06-07T01:20:39.330Z,96758.01
2019-06-07T01:24:06.828Z,96761.00
2019-06-07T01:26:31.261Z,96756.33
2019-06-07T01:29:30.912Z,96752.16
2019-06-07T01:32:27.285Z,96753.06
2019-06-07T01:35:22.073Z,96753.89
2019-06-07T01:38:21.915Z,96745.39
2019-06-07T01:41:17.231Z,96732.67
2019-06-07T01:44:10.866Z,96726.70
2019-06-07T01:47:08.786Z,96719.93
2019-06-07T01:50:03.938Z,96718.70
2019-06-07T01:53:00.474Z,96719.98
2019-06-07T01:55:56.858Z,96713.64
2019-06-07T01:58:54.417Z,96711.55
2019-06-07T02:01:49.915Z,96716.69
2019-06-07T02:04:46.435Z,96712.44
2019-06-07T02:07:41.936Z,96713.72
2019-06-07T02:10:39.734Z,96715.41
2019-06-07T02:13:37.220Z,96705.24
2019-06-07T02:16:32.735Z,96704.00
2019-06-07T02:19:32.280Z,96709.97
2019-06-07T02:22:25.702Z,96707.84
2019-06-07T02:25:38.914Z,96713.39
2019-06-07T02:28:44.191Z,96721.05
2019-06-07T02:31:13.756Z,96717.67
2019-06-07T02:34:10.269Z,96723.67
2019-06-07T02:37:05.792Z,96735.55
2019-06-07T02:40:01.932Z,96727.06
2019-06-07T02:42:58.586Z,96730.91
2019-06-07T02:45:55.229Z,96730.51
2019-06-07T02:48:51.865Z,96725.42
2019-06-07T02:51:48.712Z,96728.84
2019-06-07T02:54:45.472Z,96731.38
2019-06-07T02:57:42.659Z,96733.13
2019-06-07T03:01:07.581Z,96728.88
2019-06-07T03:03:53.949Z,96734.86
2019-06-07T03:06:50.728Z,96730.66
2019-06-07T03:09:47.314Z,96734.11
2019-06-07T03:12:43.802Z,96730.31
2019-06-07T03:15:49.614Z,96736.69
2019-06-07T03:18:47.806Z,96740.06
2019-06-07T03:21:44.623Z,96743.45
2019-06-07T03:24:42.358Z,96743.88
2019-06-07T03:27:48.611Z,96745.96
2019-06-07T03:30:47.007Z,96743.45
2019-06-07T03:33:36.219Z,96737.56
2019-06-07T03:36:29.638Z,96741.78
2019-06-07T03:39:25.296Z,96749.42
2019-06-07T03:42:21.529Z,96755.39
2019-06-07T03:45:16.896Z,96745.24
2019-06-07T03:48:13.473Z,96746.09
2019-06-07T03:51:24.190Z,96742.70
2019-06-07T03:54:06.881Z,96741.02
2019-06-07T03:57:02.420Z,96742.70
2019-06-07T04:00:00.029Z,96749.49
2019-06-07T04:02:56.547Z,96746.95
2019-06-07T04:05:55.049Z,96748.64
2019-06-07T04:08:51.620Z,96755.45
2019-06-07T04:11:47.814Z,96759.27
2019-06-07T04:14:45.014Z,96755.00
2019-06-07T04:18:00.499Z,96755.42
2019-06-07T04:20:41.487Z,96756.29
2019-06-07T04:23:38.555Z,96755.86
2019-06-07T04:26:34.508Z,96745.27
2019-06-07T04:29:34.077Z,96749.48
2019-06-07T04:32:24.710Z,96752.88
2019-06-07T04:35:22.727Z,96758.81
2019-06-07T04:38:17.682Z,96758.81
2019-06-07T04:41:15.373Z,96757.95
2019-06-07T04:44:10.970Z,96757.53
2019-06-07T04:47:07.605Z,96758.77
2019-06-07T04:50:04.140Z,96755.36
2019-06-07T04:53:01.041Z,96765.97
2019-06-07T04:55:57.881Z,96763.03
2019-06-07T04:58:54.687Z,96763.43
2019-06-07T05:01:51.326Z,96756.59
2019-06-07T05:04:47.007Z,96756.19
2019-06-07T05:07:46.295Z,96751.94
2019-06-07T05:10:43.900Z,96744.33
2019-06-07T05:13:39.881Z,96748.55
2019-06-07T05:16:37.930Z,96743.44
2019-06-07T05:19:30.603Z,96734.96
2019-06-07T05:22:27.647Z,96735.73
2019-06-07T05:25:27.181Z,96735.73
2019-06-07T05:28:24.052Z,96730.56
2019-06-07T05:31:20.183Z,96728.88
2019-06-07T05:34:16.701Z,96724.16
2019-06-07T05:37:13.698Z,96723.69
2019-06-07T05:40:09.948Z,96720.70
2019-06-07T05:43:05.576Z,96710.89
2019-06-07T05:46:02.062Z,96714.23
2019-06-07T05:48:58.845Z,96720.95
2019-06-07T05:51:55.555Z,96709.00
2019-06-07T05:54:52.616Z,96699.58
2019-06-07T05:57:51.006Z,96700.36
2019-06-07T06:00:47.538Z,96690.13
2019-06-07T06:03:44.062Z,96688.80
2019-06-07T06:06:39.503Z,96690.02
2019-06-07T06:09:35.373Z,96687.40
2019-06-07T06:12:38.254Z,96684.83
2019-06-07T06:15:42.462Z,96687.33
2019-06-07T06:18:24.349Z,96685.58
2019-06-07T06:21:20.369Z,96673.61
2019-06-07T06:24:16.147Z,96676.51
2019-06-07T06:27:41.506Z,96677.73
2019-06-07T06:30:08.580Z,96674.29
2019-06-07T06:33:06.014Z,96681.38
2019-06-07T06:36:01.540Z,96670.61
2019-06-07T06:38:59.588Z,96676.44
2019-06-07T06:42:03.531Z,96681.44
2019-06-07T06:44:54.676Z,96682.61
2019-06-07T06:47:50.639Z,96684.63
2019-06-07T06:50:49.163Z,96681.52
2019-06-07T06:53:43.884Z,96671.67
2019-06-07T06:56:39.753Z,96672.38
2019-06-07T06:59:39.116Z,96668.86
2019-06-07T07:02:31.343Z,96671.81
2019-06-07T07:05:28.260Z,96669.52
2019-06-07T07:08:23.702Z,96667.20
2019-06-07T07:11:23.230Z,96667.94
2019-06-07T07:14:17.389Z,96673.24
2019-06-07T07:17:12.951Z,96673.24
2019-06-07T07:20:08.710Z,96678.13
2019-06-07T07:23:06.304Z,96669.53
2019-06-07T07:26:01.952Z,96671.91
2019-06-07T07:28:59.578Z,96664.06
2019-06-07T07:31:56.471Z,96669.84
2019-06-07T07:34:59.644Z,96659.00
2019-06-07T07:37:53.502Z,96655.97
2019-06-07T07:41:02.287Z,96655.94
2019-06-07T07:43:45.712Z,96646.37
2019-06-07T07:46:39.295Z,96648.57
2019-06-07T07:49:35.856Z,96644.39
2019-06-07T07:52:32.045Z,96629.39
2019-06-07T07:55:28.257Z,96627.34
2019-06-07T07:58:23.673Z,96625.50
2019-06-07T08:01:20.058Z,96625.22
2019-06-07T08:04:39.805Z,96616.50
2019-06-07T08:07:20.823Z,96616.41
2019-06-07T08:10:16.511Z,96608.20
2019-06-07T08:13:24.795Z,96602.64
2019-06-07T08:16:16.629Z,96600.14
2019-06-07T08:19:08.136Z,96599.05
2019-06-07T08:22:04.974Z,96579.14
2019-06-07T08:25:04.237Z,96585.44
2019-06-07T08:27:59.116Z,96570.01
2019-06-07T08:31:03.269Z,96562.58
2019-06-07T08:33:52.682Z,96568.28
2019-06-07T08:36:48.072Z,96561.21
2019-06-07T08:39:43.986Z,96558.11
2019-06-07T08:42:59.819Z,96555.06
2019-06-07T08:45:39.979Z,96552.15
2019-06-07T08:48:36.608Z,96550.25
2019-06-07T08:51:32.470Z,96553.67
2019-06-07T08:54:30.568Z,96547.05
2019-06-07T08:57:26.436Z,96540.92
2019-06-07T09:00:45.545Z,96550.33
2019-06-07T09:03:18.391Z,96546.55
2019-06-07T09:07:01.066Z,96549.13
2019-06-07T09:09:11.532Z,96552.08
2019-06-07T09:12:11.249Z,96538.13
2019-06-07T09:15:20.422Z,96537.64
2019-06-07T09:21:09.588Z,96533.48
2019-06-07T09:24:11.179Z,96528.09
2019-06-07T09:27:04.107Z,96521.14
2019-06-07T09:30:03.170Z,96520.14
2019-06-07T09:32:53.202Z,96506.08
2019-06-07T09:35:50.274Z,96504.86
2019-06-07T09:38:45.544Z,96506.59
2019-06-07T09:41:47.349Z,96502.44
2019-06-07T09:44:40.030Z,96500.42
2019-06-07T09:47:40.900Z,96500.36
2019-06-07T09:50:36.482Z,96486.18
2019-06-07T09:53:33.030Z,96485.95
2019-06-07T09:56:28.508Z,96488.98
2019-06-07T09:59:25.164Z,96488.80
2019-06-07T10:02:21.458Z,96476.33
2019-06-07T10:05:18.007Z,96477.75
2019-06-07T10:09:01.085Z,96474.08
2019-06-07T10:11:11.165Z,96475.94
2019-06-07T10:14:08.690Z,96461.34
2019-06-07T10:17:10.249Z,96457.73
2019-06-07T10:20:07.609Z,96456.34
2019-06-07T10:23:05.742Z,96453.52
2019-06-07T10:26:01.587Z,96453.25
2019-06-07T10:28:57.627Z,96446.31
2019-06-07T10:31:53.818Z,96444.97
2019-06-07T10:34:50.109Z,96434.78
2019-06-07T10:37:45.711Z,96434.02
2019-06-07T10:40:41.842Z,96436.01
2019-06-07T10:43:37.408Z,96430.62
2019-06-07T10:46:35.046Z,96433.98
2019-06-07T10:49:30.110Z,96428.61
2019-06-07T10:52:26.929Z,96421.23
2019-06-07T10:55:24.481Z,96419.74
2019-06-07T10:58:20.057Z,96421.16
2019-06-07T11:01:18.810Z,96415.61
2019-06-07T11:04:20.850Z,96417.22
2019-06-07T11:07:17.407Z,96414.71
2019-06-07T11:10:19.359Z,96413.65
2019-06-07T11:13:10.895Z,96405.19
2019-06-07T11:16:07.085Z,96400.30
2019-06-07T11:19:00.825Z,96399.53
2019-06-07T11:21:56.651Z,96398.30
2019-06-07T11:24:52.859Z,96385.85
2019-06-07T11:27:47.957Z,96381.84
2019-06-07T11:30:44.340Z,96388.19
2019-06-07T11:33:41.080Z,96385.69
2019-06-07T11:36:37.771Z,96384.12
2019-06-07T11:39:34.246Z,96379.52
2019-06-07T11:42:29.188Z,96376.16
2019-06-07T11:45:25.675Z,96388.66
2019-06-07T11:48:22.234Z,96382.80
2019-06-07T11:51:18.966Z,96388.41
2019-06-07T11:54:16.055Z,96385.45
2019-06-07T11:57:13.034Z,96383.44
2019-06-07T12:00:09.362Z,96388.12
2019-06-07T12:03:07.791Z,96373.11
2019-06-07T12:06:05.303Z,96373.91
2019-06-07T12:09:00.930Z,96374.72
2019-06-07T12:11:57.518Z,96371.80
2019-06-07T12:15:00.401Z,96364.86
2019-06-07T12:17:58.268Z,96364.78
2019-06-07T12:21:00.243Z,96360.34
2019-06-07T12:23:51.648Z,96354.23
2019-06-07T12:26:49.330Z,96343.73
2019-06-07T12:29:44.103Z,96345.33
2019-06-07T12:32:40.868Z,96341.61
2019-06-07T12:35:37.399Z,96327.86
2019-06-07T12:38:35.314Z,96324.89
2019-06-07T12:41:31.843Z,96317.27
2019-06-07T12:44:27.281Z,96314.12
2019-06-07T12:47:24.877Z,96316.67
2019-06-07T12:50:21.760Z,96312.46
2019-06-07T12:53:17.934Z,96303.64
2019-06-07T12:56:13.577Z,96304.56
2019-06-07T12:59:10.239Z,96305.84
2019-06-07T13:02:05.786Z,96307.85
2019-06-07T13:05:04.698Z,96307.08
2019-06-07T13:08:00.094Z,96303.70
2019-06-07T13:10:56.059Z,96291.66
2019-06-07T13:13:52.685Z,96294.48
2019-06-07T13:16:48.208Z,96288.08
2019-06-07T13:19:45.047Z,96285.88
2019-06-07T13:22:41.001Z,96285.88
2019-06-07T13:25:46.141Z,96281.16
2019-06-07T13:28:34.396Z,96275.91
2019-06-07T13:31:30.045Z,96270.75
2019-06-07T13:34:26.685Z,96275.97
2019-06-07T13:37:23.333Z,96266.06
2019-06-07T13:40:19.818Z,96266.64
2019-06-07T13:43:14.673Z,96266.45
2019-06-07T13:46:16.900Z,96267.52
2019-06-07T13:49:13.963Z,96265.11
2019-06-07T13:52:11.768Z,96256.42
2019-06-07T13:55:13.571Z,96254.27
2019-06-07T13:58:11.101Z,96248.08
2019-06-07T14:01:07.951Z,96256.41
2019-06-07T14:04:04.459Z,96239.95
2019-06-07T14:07:01.019Z,96235.13
2019-06-07T14:09:56.735Z,96237.48
2019-06-07T14:12:53.377Z,96236.02
2019-06-07T14:15:50.196Z,96234.28
2019-06-07T14:18:45.942Z,96233.60
2019-06-07T14:21:42.185Z,96228.28
2019-06-07T14:24:37.272Z,96224.62
2019-06-07T14:27:36.529Z,96225.64
2019-06-07T14:30:33.709Z,96225.64
2019-06-07T14:33:31.853Z,96226.88
2019-06-07T14:36:26.927Z,96223.43
2019-06-07T14:39:23.066Z,96218.67
2019-06-07T14:42:19.167Z,96225.64
2019-06-07T14:45:16.033Z,96216.37
2019-06-07T14:48:12.661Z,96213.48
2019-06-07T14:51:09.379Z,96210.09
2019-06-07T14:54:08.711Z,96216.70
2019-06-07T14:57:05.666Z,96215.45
2019-06-07T15:00:10.406Z,96209.06
2019-06-07T15:03:00.080Z,96208.38
2019-06-07T15:06:10.444Z,96207.11
2019-06-07T15:09:07.813Z,96202.53
2019-06-07T15:12:03.880Z,96189.22
2019-06-07T15:15:00.774Z,96190.86
2019-06-07T15:17:58.718Z,96189.92
2019-06-07T15:20:54.741Z,96189.94
2019-06-07T15:23:53.691Z,96182.74
2019-06-07T15:26:49.358Z,96186.00
2019-06-07T15:29:47.886Z,96177.59
2019-06-07T15:32:43.878Z,96182.31
2019-06-07T15:35:40.976Z,96173.64
2019-06-07T15:38:39.247Z,96182.98
2019-06-07T15:41:35.023Z,96175.54
2019-06-07T15:44:33.710Z,96167.18
2019-06-07T15:47:29.659Z,96161.94
2019-06-07T15:50:28.811Z,96156.62
2019-06-07T15:53:25.484Z,96155.48
2019-06-07T15:56:21.166Z,96153.84
2019-06-07T15:59:17.951Z,96149.77
2019-06-07T16:02:14.157Z,96156.44
2019-06-07T16:05:10.887Z,96152.36
2019-06-07T16:08:07.671Z,96154.58
2019-06-07T16:11:05.700Z,96161.48
2019-06-07T16:14:02.594Z,96161.81
2019-06-07T16:16:59.234Z,96165.06
2019-06-07T16:19:56.381Z,96156.88
2019-06-07T16:22:52.073Z,96153.84
2019-06-07T16:25:52.865Z,96147.66
2019-06-07T16:28:49.903Z,96147.13
2019-06-07T16:31:46.709Z,96144.47
2019-06-07T16:34:45.883Z,96143.21
2019-06-07T16:37:40.919Z,96137.86
2019-06-07T16:40:44.627Z,96136.85
2019-06-07T16:43:40.537Z,96138.47
2019-06-07T16:46:36.790Z,96133.02
2019-06-07T16:49:33.391Z,96125.83
2019-06-07T16:52:29.191Z,96123.13
2019-06-07T16:55:26.286Z,96132.38
2019-06-07T16:58:23.316Z,96131.43
2019-06-07T17:01:21.001Z,96134.16
2019-06-07T17:04:16.798Z,96130.05
2019-06-07T17:07:13.217Z,96123.52
2019-06-07T17:10:14.302Z,96133.00
2019-06-07T17:13:10.017Z,96123.41
2019-06-07T17:16:07.599Z,96139.14
2019-06-07T17:19:02.665Z,96136.21
2019-06-07T17:22:01.673Z,96137.95
2019-06-07T17:24:57.488Z,96131.84
2019-06-07T17:27:54.687Z,96131.95
2019-06-07T17:31:03.259Z,96137.03
2019-06-07T17:33:59.396Z,96140.14
2019-06-07T17:36:56.010Z,96137.09
2019-06-07T17:39:51.644Z,96139.34
2019-06-07T17:42:49.314Z,96139.95
2019-06-07T17:45:47.389Z,96147.44
2019-06-07T17:48:53.884Z,96145.05
2019-06-07T17:51:52.286Z,96144.69
2019-06-07T17:54:48.017Z,96161.38
2019-06-07T17:57:49.155Z,96150.71
2019-06-07T18:00:51.073Z,96152.22
2019-06-07T18:03:49.157Z,96149.02
2019-06-07T18:06:45.278Z,96144.58
2019-06-07T18:09:41.749Z,96144.60
2019-06-07T18:12:39.395Z,96146.86
2019-06-07T18:15:35.044Z,96152.08
2019-06-07T18:18:32.123Z,96151.34
2019-06-07T18:21:36.010Z,96150.42
2019-06-07T18:24:31.895Z,96148.19
2019-06-07T18:27:28.837Z,96155.44
2019-06-07T18:30:25.175Z,96154.41
2019-06-07T18:33:24.302Z,96155.20
2019-06-07T18:36:21.917Z,96164.07
2019-06-07T18:39:17.251Z,96169.39
2019-06-07T18:42:15.464Z,96168.69
2019-06-07T18:45:12.422Z,96168.55
2019-06-07T18:48:09.805Z,96177.74
2019-06-07T18:51:05.644Z,96180.09
2019-06-07T18:54:03.737Z,96174.33
2019-06-07T18:57:00.553Z,96182.47
2019-06-07T18:59:58.715Z,96182.00
2019-06-07T19:02:56.126Z,96185.09
2019-06-07T19:05:52.161Z,96192.46
2019-06-07T19:08:48.433Z,96195.55
2019-06-07T19:11:43.467Z,96202.33
2019-06-07T19:14:40.621Z,96216.16
2019-06-07T19:17:37.202Z,96209.46
2019-06-07T19:20:33.539Z,96228.91
2019-06-07T19:23:30.275Z,96222.38
2019-06-07T19:26:26.077Z,96219.11
2019-06-07T19:29:23.287Z,96223.66
2019-06-07T19:32:23.909Z,96223.88
2019-06-07T19:35:20.670Z,96236.14
2019-06-07T19:38:22.454Z,96239.42
2019-06-07T19:41:20.095Z,96241.86
2019-06-07T19:44:17.833Z,96249.08
2019-06-07T19:47:13.744Z,96249.77
2019-06-07T19:50:10.199Z,96255.62
2019-06-07T19:53:08.193Z,96267.88
2019-06-07T19:56:04.565Z,96275.12
2019-06-07T19:59:01.712Z,96287.48
2019-06-07T20:01:57.906Z,96298.44
2019-06-07T20:04:59.510Z,96300.12
2019-06-07T20:07:52.118Z,96296.97
2019-06-07T20:10:56.442Z,96307.19
2019-06-07T20:13:51.820Z,96322.45
2019-06-07T20:16:48.495Z,96333.98
2019-06-07T20:19:44.338Z,96351.20
2019-06-07T20:22:41.322Z,96356.78
2019-06-07T20:25:43.213Z,96360.26
2019-06-07T20:28:40.035Z,96359.67
2019-06-07T20:31:37.055Z,96365.23
2019-06-07T20:34:45.970Z,96369.77
2019-06-07T20:37:42.608Z,96375.60
2019-06-07T20:40:39.323Z,96381.56
2019-06-07T20:43:47.015Z,96394.69
2019-06-07T20:46:42.464Z,96393.65
2019-06-07T20:49:39.542Z,96404.63
2019-06-07T20:52:35.211Z,96404.91
2019-06-07T20:55:33.053Z,96410.31
2019-06-07T20:58:28.965Z,96413.13
2019-06-07T21:01:26.587Z,96428.41
2019-06-07T21:04:23.305Z,96410.00
2019-06-07T21:07:19.965Z,96427.20
2019-06-07T21:10:17.379Z,96437.72
2019-06-07T21:13:15.173Z,96434.36
2019-06-07T21:16:11.272Z,96446.34
2019-06-07T21:19:08.336Z,96446.34
2019-06-07T21:22:05.025Z,96468.91
2019-06-07T21:25:03.203Z,96529.29
2019-06-07T21:27:57.989Z,96544.34
2019-06-07T21:30:54.610Z,96562.30
2019-06-07T21:33:50.641Z,96577.18
2019-06-07T21:36:47.503Z,96590.20
2019-06-07T21:39:42.278Z,96628.10
2019-06-07T21:42:39.494Z,96633.81
2019-06-07T21:45:35.117Z,96653.22
2019-06-07T21:48:32.834Z,96678.63
2019-06-07T21:51:28.426Z,96689.02
2019-06-07T21:54:25.204Z,96716.75
2019-06-07T21:57:20.896Z,96750.05
2019-06-07T22:00:26.932Z,96750.05
2019-06-07T22:03:23.303Z,96759.73
2019-06-07T22:06:22.036Z,96784.06
2019-06-07T22:09:18.900Z,96791.18
2019-06-07T22:12:15.517Z,96822.36
2019-06-07T22:15:32.065Z,96848.16
2019-06-07T22:18:10.739Z,96850.25
2019-06-07T22:21:06.418Z,96865.30
2019-06-07T22:24:08.947Z,96880.70
2019-06-07T22:27:05.516Z,96880.27
2019-06-07T22:30:00.002Z,96900.13
2019-06-07T22:32:56.986Z,96927.14
2019-06-07T22:35:52.684Z,96942.59
2019-06-07T22:38:50.515Z,96960.65
2019-06-07T22:41:46.086Z,96973.97
2019-06-07T22:44:42.337Z,96994.09
2019-06-07T22:47:40.515Z,97013.77
2019-06-07T22:50:36.090Z,97034.31
2019-06-07T22:53:32.938Z,97034.00
2019-06-07T22:56:43.244Z,97036.17
2019-06-07T22:59:41.365Z,97037.09
2019-06-07T23:02:36.845Z,97043.12
2019-06-07T23:05:34.452Z,97043.55
2019-06-07T23:08:31.071Z,97050.93
2019-06-07T23:11:27.213Z,97053.49
2019-06-07T23:14:25.643Z,97065.06
2019-06-07T23:17:20.750Z,97068.16
2019-06-07T23:20:15.915Z,97083.61
2019-06-07T23:23:12.265Z,97080.61
2019-06-07T23:26:08.181Z,97090.47
2019-06-07T23:29:06.127Z,97097.41
2019-06-07T23:32:01.916Z,97109.01
2019-06-07T23:34:59.643Z,97106.02
2019-06-07T23:37:55.259Z,97111.56
2019-06-07T23:40:51.628Z,97121.44
2019-06-07T23:43:47.138Z,97116.39
2019-06-07T23:46:44.077Z,97119.86
2019-06-07T23:49:42.002Z,97117.73
2019-06-07T23:52:38.211Z,97119.42
2019-06-07T23:55:34.000Z,97125.41
2019-06-07T23:58:30.475Z,97125.01
